首页
METAR-TAF:

METAR-TAF

机场 :

Jerome County Airport

Jerome, 爱达荷州, 美国

纬度: 42-43-36N, 经度: 114-27-26W, 海拔: 1234米

当前天气观测

该预报发布于2小时和2分钟前的23:06 UTC
风速14节,风向西转西南,有时为23节阵风
温度 29°C
湿度 25%
气压 1007 hPa
能見度: 16.1公里
天空无云

METAR: KJER 302306Z AUTO 25014G23KT 10SM CLR 29/07 A2974 RMK AO2 WSHFT 2246 LTG DSNT NW T02890067

时间: 19:08 (01:08 UTC)

预报

该预报发布于1小时和47分钟前的23:21 UTC
预报有效从01日的 00点(UTC)到 01日的 24点(UTC)
风速6节,风向西转西北
能見度: 10公里
天空无云
从 01日的 0600点(UTC)
风速6节,风向南转西南
能見度: 10公里
多云层高于25000英尺
从 01日的 1800点(UTC)
风速10节,风向西
能見度: 10公里
多云层高于15000英尺

TAF: KJER 312321Z 0100/0124 30006KT P6SM SKC FM010600 21006KT P6SM BKN250 FM011800 26010KT P6SM BKN150

超过4000个机场的气象观测和天气预报(METAR&TAF报告)。

可查询的气象台以黄色和红色小点在地图上表示。

将鼠标移到小点上方,可查看气象台名称。

然后点击查看天气观测和预报。

如需切换地图:点击带黑十字的绿色按钮放大地图;点击带横线的绿色按钮缩小地图;或者点击绿色箭头查看邻近地区的地图。


METAR-TAF: